Guthrie, Missouri
Current Conditions -  °F | °C
As of 11:53 AM on Friday 28 Nov 2014 (Local Time) from KJEF Reporting Station
Clear Clear  
Wind Chill: 52°   Ceiling: Unl
Heat Index: 52°   Visibility: 10mi
Dew Point: 30°   Wind: 16mph
Humidity: 43%   Direction: 210°SSW
Pressure: 29.98"   Gusts: 22mph
Location:  38.718°N, 92.0861°W
Report Text: KJEF 281753Z 21014G19KT 10SM CLR 11/M01 A2998 RMK AO2 PRESFR SLP146 T01111011 10111 21017 58043 $
Loading
Personal Weather Stations






























Interactive Weather Map New forecast layout! Learn more

10-Day Weather Forecast

Advertisements
Track Severe Weather on mobile